createdAt,value
2018-01-17T00:01:23.181Z,-0.30
2018-01-17T00:03:50.304Z,0.00
2018-01-17T00:06:16.484Z,0.00
2018-01-17T00:08:42.659Z,0.00
2018-01-17T00:11:08.898Z,0.00
2018-01-17T00:13:35.109Z,0.00
2018-01-17T00:16:01.289Z,0.00
2018-01-17T00:18:27.504Z,0.10
2018-01-17T00:20:53.767Z,0.10
2018-01-17T00:23:19.902Z,0.10
2018-01-17T00:25:46.836Z,0.20
2018-01-17T00:28:12.994Z,0.20
2018-01-17T00:30:39.163Z,0.30
2018-01-17T00:33:05.562Z,0.30
2018-01-17T00:35:32.663Z,0.40
2018-01-17T00:37:58.822Z,0.40
2018-01-17T00:40:25.048Z,0.40
2018-01-17T00:42:52.059Z,0.30
2018-01-17T00:45:18.214Z,0.30
2018-01-17T00:47:45.124Z,0.20
2018-01-17T00:50:11.308Z,0.20
2018-01-17T00:52:37.495Z,0.20
2018-01-17T00:55:03.735Z,0.20
2018-01-17T00:57:30.607Z,0.10
2018-01-17T00:59:57.586Z,0.10
2018-01-17T01:02:24.624Z,0.10
2018-01-17T01:04:50.866Z,0.10
2018-01-17T01:07:17.202Z,0.00
2018-01-17T01:09:43.502Z,0.00
2018-01-17T01:12:09.634Z,0.00
2018-01-17T01:14:35.971Z,-0.10
2018-01-17T01:17:02.223Z,-0.10
2018-01-17T01:19:28.380Z,-0.10
2018-01-17T01:21:54.625Z,-0.10
2018-01-17T01:24:20.860Z,-0.10
2018-01-17T01:26:47.029Z,-0.10
2018-01-17T01:29:13.227Z,-0.20
2018-01-17T01:31:39.429Z,-0.20
2018-01-17T01:34:05.626Z,-0.20
2018-01-17T01:36:32.553Z,-0.20
2018-01-17T01:38:59.454Z,-0.20
2018-01-17T01:41:25.645Z,-0.20
2018-01-17T01:43:52.551Z,-0.20
2018-01-17T01:46:18.845Z,-0.20
2018-01-17T01:48:57.595Z,-0.20
2018-01-17T01:51:24.036Z,-0.20
2018-01-17T01:53:50.215Z,-0.20
2018-01-17T01:56:16.474Z,-0.20
2018-01-17T01:58:42.816Z,-0.10
2018-01-17T02:01:09.717Z,-0.10
2018-01-17T02:03:35.920Z,0.00
2018-01-17T02:06:03.002Z,-0.10
2018-01-17T02:08:29.268Z,-0.10
2018-01-17T02:10:56.149Z,-0.10
2018-01-17T02:13:22.422Z,-0.10
2018-01-17T02:15:48.602Z,-0.10
2018-01-17T02:18:14.711Z,-0.10
2018-01-17T02:20:41.691Z,-0.10
2018-01-17T02:23:07.832Z,-0.20
2018-01-17T02:25:34.069Z,-0.10
2018-01-17T02:28:00.289Z,-0.10
2018-01-17T02:30:26.529Z,-0.10
2018-01-17T02:32:52.759Z,-0.10
2018-01-17T02:35:19.131Z,-0.10
2018-01-17T02:37:46.050Z,-0.10
2018-01-17T02:40:25.155Z,-0.10
2018-01-17T02:42:51.433Z,-0.10
2018-01-17T02:45:17.599Z,0.10
2018-01-17T02:47:43.861Z,0.10
2018-01-17T02:50:10.889Z,0.20
2018-01-17T02:52:37.824Z,0.20
2018-01-17T02:55:03.946Z,0.20
2018-01-17T02:57:30.081Z,0.20
2018-01-17T02:59:56.293Z,0.20
2018-01-17T03:02:22.431Z,0.20
2018-01-17T03:04:48.592Z,0.10
2018-01-17T03:07:15.439Z,0.10
2018-01-17T03:09:41.674Z,0.10
2018-01-17T03:12:07.856Z,0.00
2018-01-17T03:14:34.786Z,-0.20
2018-01-17T03:17:00.892Z,-0.20
2018-01-17T03:19:27.037Z,-0.20
2018-01-17T03:21:53.207Z,-0.20
2018-01-17T03:24:19.427Z,-0.30
2018-01-17T03:26:46.361Z,-0.30
2018-01-17T03:29:13.356Z,-0.30
2018-01-17T03:31:39.577Z,-0.30
2018-01-17T03:34:05.696Z,-0.30
2018-01-17T03:36:32.043Z,-0.20
2018-01-17T03:38:58.220Z,-0.10
2018-01-17T03:41:25.312Z,0.00
2018-01-17T03:43:51.434Z,0.00
2018-01-17T03:46:17.614Z,0.00
2018-01-17T03:48:44.573Z,0.10
2018-01-17T03:51:10.884Z,0.10
2018-01-17T03:53:37.981Z,0.20
2018-01-17T03:56:04.175Z,0.20
2018-01-17T03:58:30.381Z,0.20
2018-01-17T04:00:57.294Z,0.40
2018-01-17T04:03:23.541Z,0.30
2018-01-17T04:05:50.415Z,0.30
2018-01-17T04:08:16.591Z,0.30
2018-01-17T04:10:44.346Z,0.20
2018-01-17T04:13:10.504Z,0.20
2018-01-17T04:15:37.393Z,0.20
2018-01-17T04:18:03.624Z,0.20
2018-01-17T04:20:29.855Z,0.20
2018-01-17T04:22:56.183Z,0.10
2018-01-17T04:25:22.447Z,0.10
2018-01-17T04:27:48.621Z,0.10
2018-01-17T04:30:14.784Z,0.10
2018-01-17T04:32:40.970Z,0.20
2018-01-17T04:35:07.130Z,0.20
2018-01-17T04:37:33.350Z,0.20
2018-01-17T04:39:59.557Z,0.20
2018-01-17T04:42:25.794Z,0.20
2018-01-17T04:44:52.076Z,0.20
2018-01-17T04:47:19.179Z,0.10
2018-01-17T04:49:45.398Z,0.10
2018-01-17T04:52:11.533Z,0.20
2018-01-17T04:54:37.794Z,0.20
2018-01-17T04:57:04.681Z,0.30
2018-01-17T04:59:30.917Z,0.30
2018-01-17T05:01:57.015Z,0.30
2018-01-17T05:04:23.223Z,0.30
2018-01-17T05:06:49.431Z,0.30
2018-01-17T05:09:16.437Z,0.30
2018-01-17T05:11:42.775Z,0.30
2018-01-17T05:14:09.036Z,0.30
2018-01-17T05:16:36.054Z,0.20
2018-01-17T05:19:02.463Z,0.20
2018-01-17T05:21:28.722Z,0.20
2018-01-17T05:23:56.315Z,0.20
2018-01-17T05:26:22.490Z,0.20
2018-01-17T05:28:48.616Z,0.20
2018-01-17T05:31:14.851Z,0.30
2018-01-17T05:33:41.206Z,0.30
2018-01-17T05:36:08.142Z,0.50
2018-01-17T05:38:35.147Z,0.50
2018-01-17T05:41:01.329Z,0.50
2018-01-17T05:43:28.271Z,0.60
2018-01-17T05:45:55.279Z,0.70
2018-01-17T05:48:22.332Z,0.70
2018-01-17T05:50:48.661Z,0.70
2018-01-17T05:53:14.977Z,0.80
2018-01-17T05:55:41.205Z,0.80
2018-01-17T05:58:07.343Z,0.70
2018-01-17T06:00:34.274Z,0.70
2018-01-17T06:03:00.437Z,0.70
2018-01-17T06:05:27.340Z,0.80
2018-01-17T06:07:53.656Z,0.80
2018-01-17T06:10:19.880Z,0.80
2018-01-17T06:12:46.117Z,0.80
2018-01-17T06:15:12.270Z,0.80
2018-01-17T06:17:38.562Z,0.80
2018-01-17T06:20:04.731Z,0.70
2018-01-17T06:22:31.706Z,0.50
2018-01-17T06:24:57.931Z,0.50
2018-01-17T06:27:24.194Z,0.50
2018-01-17T06:29:50.560Z,0.40
2018-01-17T06:32:17.491Z,0.40
2018-01-17T06:34:43.812Z,0.40
2018-01-17T06:37:10.830Z,0.40
2018-01-17T06:39:37.137Z,0.40
2018-01-17T06:42:03.308Z,0.40
2018-01-17T06:44:30.418Z,0.40
2018-01-17T06:46:56.624Z,0.40
2018-01-17T06:49:22.765Z,0.30
2018-01-17T06:51:48.958Z,0.30
2018-01-17T06:54:15.967Z,0.20
2018-01-17T06:56:42.185Z,0.20
2018-01-17T06:59:08.444Z,0.10
2018-01-17T07:01:34.625Z,0.10
2018-01-17T07:04:00.839Z,0.10
2018-01-17T07:06:27.065Z,0.10
2018-01-17T07:08:53.358Z,0.00
2018-01-17T07:11:20.474Z,0.10
2018-01-17T07:13:46.888Z,0.10
2018-01-17T07:16:13.038Z,0.20
2018-01-17T07:18:39.279Z,0.30
2018-01-17T07:21:05.468Z,0.30
2018-01-17T07:23:31.799Z,0.20
2018-01-17T07:25:57.930Z,0.10
2018-01-17T07:28:24.249Z,0.00
2018-01-17T07:30:50.582Z,0.00
2018-01-17T07:33:16.745Z,-0.10
2018-01-17T07:35:43.720Z,-0.20
2018-01-17T07:38:09.878Z,-0.20
2018-01-17T07:40:36.133Z,-0.10
2018-01-17T07:43:02.326Z,0.00
2018-01-17T07:45:28.531Z,0.10
2018-01-17T07:47:54.710Z,0.20
2018-01-17T07:50:21.666Z,0.20
2018-01-17T07:52:48.580Z,0.20
2018-01-17T07:55:14.991Z,0.20
2018-01-17T07:57:41.174Z,0.20
2018-01-17T08:00:08.225Z,0.20
2018-01-17T08:02:34.510Z,0.10
2018-01-17T08:05:00.758Z,0.10
2018-01-17T08:07:26.955Z,0.10
2018-01-17T08:09:53.204Z,0.10
2018-01-17T08:12:20.146Z,0.10
2018-01-17T08:14:47.908Z,0.10
2018-01-17T08:17:14.116Z,0.10
2018-01-17T08:19:41.189Z,0.00
2018-01-17T08:22:08.883Z,0.00
2018-01-17T08:24:36.096Z,0.00
2018-01-17T08:27:03.145Z,0.00
2018-01-17T08:29:30.114Z,0.10
2018-01-17T08:31:57.162Z,0.10
2018-01-17T08:34:24.087Z,0.10
2018-01-17T08:36:51.015Z,0.20
2018-01-17T08:39:17.303Z,0.20
2018-01-17T08:41:43.668Z,0.20
2018-01-17T08:44:09.804Z,0.30
2018-01-17T08:46:35.993Z,0.40
2018-01-17T08:49:02.191Z,0.40
2018-01-17T08:51:28.547Z,0.50
2018-01-17T08:53:54.703Z,0.60
2018-01-17T08:56:22.452Z,0.60
2018-01-17T08:58:48.812Z,0.60
2018-01-17T09:01:15.696Z,0.60
2018-01-17T09:03:41.911Z,0.60
2018-01-17T09:06:08.103Z,0.60
2018-01-17T09:08:35.930Z,0.60
2018-01-17T09:11:02.272Z,0.60
2018-01-17T09:13:28.727Z,0.60
2018-01-17T09:15:55.647Z,0.60
2018-01-17T09:18:21.873Z,0.60
2018-01-17T09:20:48.394Z,0.60
2018-01-17T09:23:14.787Z,0.60
2018-01-17T09:25:40.995Z,0.60
2018-01-17T09:28:08.029Z,0.60
2018-01-17T09:30:34.987Z,0.70
2018-01-17T09:33:02.030Z,0.70
2018-01-17T09:35:29.001Z,0.80
2018-01-17T09:37:55.158Z,0.80
2018-01-17T09:40:21.344Z,0.80
2018-01-17T09:42:47.948Z,1.00
2018-01-17T09:45:15.006Z,1.10
2018-01-17T09:47:41.962Z,1.10
2018-01-17T09:50:08.380Z,1.10
2018-01-17T09:52:35.385Z,1.20
2018-01-17T09:55:01.632Z,1.20
2018-01-17T09:57:29.380Z,1.20
2018-01-17T09:59:55.592Z,1.20
2018-01-17T10:02:21.781Z,1.30
2018-01-17T10:04:48.904Z,1.40
2018-01-17T10:07:15.114Z,1.40
2018-01-17T10:09:41.280Z,1.50
2018-01-17T10:12:07.441Z,1.60
2018-01-17T10:14:34.146Z,1.70
2018-01-17T10:17:01.208Z,1.70
2018-01-17T10:19:27.511Z,1.70
2018-01-17T10:21:54.514Z,1.60
2018-01-17T10:24:20.761Z,1.70
2018-01-17T10:26:47.778Z,1.60
2018-01-17T10:29:14.175Z,1.60
2018-01-17T10:31:41.037Z,1.50
2018-01-17T10:34:07.942Z,1.50
2018-01-17T10:36:35.974Z,1.50
2018-01-17T10:39:02.591Z,1.50
2018-01-17T10:41:29.154Z,1.50
2018-01-17T10:43:56.183Z,1.50
2018-01-17T10:46:23.708Z,1.50
2018-01-17T10:48:50.077Z,1.50
2018-01-17T10:51:17.315Z,1.60
2018-01-17T10:53:43.929Z,1.60
2018-01-17T10:56:10.271Z,1.70
2018-01-17T10:58:37.022Z,1.80
2018-01-17T11:01:03.766Z,1.90
2018-01-17T11:03:30.253Z,1.90
2018-01-17T11:05:56.527Z,1.70
2018-01-17T11:08:23.007Z,1.60
2018-01-17T11:10:49.501Z,1.60
2018-01-17T11:13:15.882Z,1.40
2018-01-17T11:15:42.221Z,1.40
2018-01-17T11:18:09.352Z,1.30
2018-01-17T11:20:35.534Z,1.30
2018-01-17T11:23:01.889Z,1.20
2018-01-17T11:25:28.987Z,1.30
2018-01-17T11:27:55.383Z,1.30
2018-01-17T11:30:21.648Z,1.30
2018-01-17T11:32:48.162Z,1.40
2018-01-17T11:35:14.426Z,1.30
2018-01-17T11:37:40.844Z,1.40
2018-01-17T11:40:07.228Z,1.50
2018-01-17T11:42:33.974Z,1.50
2018-01-17T11:45:00.267Z,1.40
2018-01-17T11:47:27.957Z,1.30
2018-01-17T11:49:55.094Z,1.20
2018-01-17T11:52:22.099Z,1.10
2018-01-17T11:54:48.232Z,1.10
2018-01-17T11:57:15.995Z,1.00
2018-01-17T11:59:42.208Z,1.10
2018-01-17T12:02:08.380Z,1.20
2018-01-17T12:04:35.354Z,1.60
2018-01-17T12:07:01.651Z,1.60
2018-01-17T12:09:28.615Z,1.90
2018-01-17T12:11:54.918Z,1.90
2018-01-17T12:14:21.883Z,1.90
2018-01-17T12:16:49.004Z,1.90
2018-01-17T12:19:15.466Z,1.90
2018-01-17T12:21:41.729Z,1.80
2018-01-17T12:24:07.883Z,1.80
2018-01-17T12:26:34.772Z,1.60
2018-01-17T12:29:00.992Z,1.60
2018-01-17T12:31:27.200Z,1.60
2018-01-17T12:33:54.294Z,1.60
2018-01-17T12:36:20.481Z,1.60
2018-01-17T12:38:46.760Z,1.60
2018-01-17T12:41:14.747Z,1.60
2018-01-17T12:43:41.686Z,1.70
2018-01-17T12:46:09.403Z,1.70
2018-01-17T12:48:35.544Z,1.70
2018-01-17T12:51:02.248Z,1.70
2018-01-17T12:53:28.719Z,1.60
2018-01-17T12:55:54.919Z,1.50
2018-01-17T12:58:21.191Z,1.50
2018-01-17T13:00:48.871Z,1.70
2018-01-17T13:03:15.890Z,1.70
2018-01-17T13:05:42.240Z,1.70
2018-01-17T13:08:08.667Z,1.70
2018-01-17T13:10:36.577Z,1.80
2018-01-17T13:13:02.763Z,1.80
2018-01-17T13:15:29.022Z,1.90
2018-01-17T13:17:55.333Z,2.00
2018-01-17T13:20:22.316Z,1.80
2018-01-17T13:22:48.557Z,1.80
2018-01-17T13:25:14.935Z,1.70
2018-01-17T13:27:41.944Z,1.60
2018-01-17T13:30:08.052Z,1.60
2018-01-17T13:32:34.438Z,1.70
2018-01-17T13:35:01.319Z,1.70
2018-01-17T13:37:27.551Z,1.70
2018-01-17T13:39:54.182Z,1.70
2018-01-17T13:42:20.409Z,1.70
2018-01-17T13:44:46.746Z,1.70
2018-01-17T13:47:13.144Z,1.60
2018-01-17T13:49:39.542Z,1.50
2018-01-17T13:52:05.704Z,1.50
2018-01-17T13:54:32.012Z,1.40
2018-01-17T13:56:59.003Z,1.50
2018-01-17T13:59:25.547Z,1.50
2018-01-17T14:01:52.074Z,1.50
2018-01-17T14:04:18.549Z,1.40
2018-01-17T14:06:45.534Z,1.30
2018-01-17T14:09:11.863Z,1.30
2018-01-17T14:11:38.149Z,1.30
2018-01-17T14:14:05.692Z,1.40
2018-01-17T14:16:31.994Z,1.30
2018-01-17T14:18:58.286Z,1.30
2018-01-17T14:21:24.549Z,1.30
2018-01-17T14:23:50.977Z,1.20
2018-01-17T14:26:17.236Z,1.20
2018-01-17T14:28:43.716Z,1.20
2018-01-17T14:31:09.968Z,1.20
2018-01-17T14:33:36.235Z,1.10
2018-01-17T14:36:03.367Z,1.10
2018-01-17T14:38:30.947Z,1.00
2018-01-17T14:40:57.892Z,0.90
2018-01-17T14:43:24.924Z,0.90
2018-01-17T14:45:51.191Z,0.90
2018-01-17T14:48:17.377Z,1.00
2018-01-17T14:50:43.701Z,1.00
2018-01-17T14:53:10.041Z,1.00
2018-01-17T14:55:37.117Z,0.90
2018-01-17T14:58:04.311Z,0.90
2018-01-17T15:00:30.729Z,0.90
2018-01-17T15:02:57.273Z,0.80
2018-01-17T15:05:23.447Z,0.80
2018-01-17T15:07:49.827Z,0.80
2018-01-17T15:10:16.250Z,0.80
2018-01-17T15:12:42.398Z,0.80
2018-01-17T15:15:09.251Z,0.60
2018-01-17T15:17:36.232Z,0.50
2018-01-17T15:20:02.396Z,0.50
2018-01-17T15:22:28.564Z,0.40
2018-01-17T15:24:55.516Z,0.30
2018-01-17T15:27:21.703Z,0.30
2018-01-17T15:29:48.930Z,0.30
2018-01-17T15:32:15.167Z,0.30
2018-01-17T15:34:41.398Z,0.30
2018-01-17T15:37:07.559Z,0.40
2018-01-17T15:39:34.955Z,0.40
2018-01-17T15:42:01.792Z,0.40
2018-01-17T15:44:28.381Z,0.40
2018-01-17T15:46:55.384Z,0.40
2018-01-17T15:49:21.564Z,0.40
2018-01-17T15:51:48.694Z,0.40
2018-01-17T15:54:15.731Z,0.40
2018-01-17T15:56:42.626Z,0.40
2018-01-17T15:59:08.904Z,0.40
2018-01-17T16:01:36.020Z,0.50
2018-01-17T16:04:02.173Z,0.50
2018-01-17T16:06:29.899Z,0.60
2018-01-17T16:08:56.389Z,0.60
2018-01-17T16:11:23.405Z,0.70
2018-01-17T16:13:50.018Z,0.70
2018-01-17T16:16:16.172Z,0.70
2018-01-17T16:18:43.716Z,0.70
2018-01-17T16:21:10.079Z,0.70
2018-01-17T16:23:36.939Z,0.80
2018-01-17T16:26:03.317Z,0.80
2018-01-17T16:28:30.797Z,0.80
2018-01-17T16:30:58.214Z,0.80
2018-01-17T16:33:24.566Z,0.80
2018-01-17T16:35:52.348Z,0.80
2018-01-17T16:38:19.396Z,0.80
2018-01-17T16:40:46.400Z,0.80
2018-01-17T16:43:12.631Z,0.80
2018-01-17T16:45:39.354Z,0.80
2018-01-17T16:48:05.720Z,0.80
2018-01-17T16:50:32.845Z,0.90
2018-01-17T16:52:59.147Z,0.80
2018-01-17T16:55:25.301Z,0.90
2018-01-17T16:57:51.525Z,0.90
2018-01-17T17:00:17.883Z,0.90
2018-01-17T17:02:45.018Z,0.90
2018-01-17T17:05:11.533Z,0.90
2018-01-17T17:07:38.437Z,0.90
2018-01-17T17:10:04.622Z,0.90
2018-01-17T17:12:30.960Z,0.90
2018-01-17T17:14:58.000Z,0.90
2018-01-17T17:17:24.975Z,0.80
2018-01-17T17:19:51.270Z,0.80
2018-01-17T17:22:19.723Z,0.70
2018-01-17T17:24:45.964Z,0.70
2018-01-17T17:27:12.221Z,0.70
2018-01-17T17:29:39.144Z,0.70
2018-01-17T17:32:06.024Z,0.70
2018-01-17T17:34:32.363Z,0.70
2018-01-17T17:36:58.620Z,0.70
2018-01-17T17:39:24.848Z,0.70
2018-01-17T17:41:51.195Z,0.70
2018-01-17T17:44:17.573Z,0.70
2018-01-17T17:46:43.749Z,0.70
2018-01-17T17:49:09.863Z,0.70
2018-01-17T17:51:36.055Z,0.70
2018-01-17T17:54:02.170Z,0.70
2018-01-17T17:56:28.433Z,0.80
2018-01-17T17:58:54.571Z,0.80
2018-01-17T18:01:20.839Z,0.80
2018-01-17T18:03:47.195Z,0.90
2018-01-17T18:06:13.383Z,0.90
2018-01-17T18:08:40.611Z,1.00
2018-01-17T18:11:07.022Z,1.00
2018-01-17T18:13:33.250Z,0.90
2018-01-17T18:15:59.462Z,1.00
2018-01-17T18:18:25.740Z,1.00
2018-01-17T18:20:52.722Z,1.00
2018-01-17T18:23:19.022Z,1.00
2018-01-17T18:25:46.056Z,1.00
2018-01-17T18:28:13.059Z,1.10
2018-01-17T18:30:39.405Z,1.10
2018-01-17T18:33:05.845Z,1.10
2018-01-17T18:35:32.163Z,1.10
2018-01-17T18:37:58.530Z,1.10
2018-01-17T18:40:25.500Z,1.00
2018-01-17T18:42:51.652Z,0.90
2018-01-17T18:45:17.825Z,0.90
2018-01-17T18:47:44.725Z,1.00
2018-01-17T18:50:10.858Z,1.00
2018-01-17T18:52:37.201Z,1.00
2018-01-17T18:55:04.182Z,1.00
2018-01-17T18:57:30.367Z,1.00
2018-01-17T18:59:56.597Z,1.00
2018-01-17T19:02:23.498Z,1.00
2018-01-17T19:04:49.844Z,0.90
2018-01-17T19:07:16.463Z,1.00
2018-01-17T19:09:42.733Z,1.00
2018-01-17T19:12:09.893Z,1.00
2018-01-17T19:14:36.812Z,0.90
2018-01-17T19:17:03.148Z,0.90
2018-01-17T19:19:30.296Z,0.80
2018-01-17T19:21:57.411Z,0.80
2018-01-17T19:24:23.786Z,0.80
2018-01-17T19:26:50.708Z,0.80
2018-01-17T19:29:17.104Z,0.80
2018-01-17T19:31:43.384Z,0.90
2018-01-17T19:34:09.502Z,0.90
2018-01-17T19:36:35.878Z,1.00
2018-01-17T19:39:02.057Z,1.00
2018-01-17T19:41:28.316Z,1.00
2018-01-17T19:43:54.623Z,1.00
2018-01-17T19:46:21.540Z,1.00
2018-01-17T19:48:47.718Z,1.00
2018-01-17T19:51:14.095Z,1.00
2018-01-17T19:53:40.829Z,1.10
2018-01-17T19:56:07.004Z,1.00
2018-01-17T19:58:33.929Z,1.00
2018-01-17T20:01:00.992Z,0.90
2018-01-17T20:03:28.012Z,1.00
2018-01-17T20:05:54.134Z,0.90
2018-01-17T20:08:20.248Z,1.00
2018-01-17T20:10:46.496Z,1.10
2018-01-17T20:13:13.397Z,1.10
2018-01-17T20:15:39.533Z,1.00
2018-01-17T20:18:05.701Z,1.00
2018-01-17T20:20:32.649Z,1.00
2018-01-17T20:23:06.770Z,0.90
2018-01-17T20:25:32.918Z,0.90
2018-01-17T20:27:59.165Z,0.90
2018-01-17T20:30:25.361Z,0.80
2018-01-17T20:32:51.598Z,0.80
2018-01-17T20:35:17.887Z,0.80
2018-01-17T20:37:44.965Z,0.90
2018-01-17T20:40:11.244Z,0.90
2018-01-17T20:42:38.940Z,0.90
2018-01-17T20:45:06.141Z,0.90
2018-01-17T20:47:32.355Z,0.90
2018-01-17T20:49:58.500Z,1.00
2018-01-17T20:52:24.701Z,1.00
2018-01-17T20:54:50.828Z,1.00
2018-01-17T20:57:17.089Z,1.00
2018-01-17T20:59:44.032Z,0.80
2018-01-17T21:02:10.904Z,0.80
2018-01-17T21:04:37.107Z,0.70
2018-01-17T21:07:03.995Z,0.60
2018-01-17T21:09:30.215Z,0.60
2018-01-17T21:11:56.336Z,0.60
2018-01-17T21:14:22.651Z,0.60
2018-01-17T21:16:48.952Z,0.50
2018-01-17T21:19:15.826Z,0.50
2018-01-17T21:21:42.090Z,0.40
2018-01-17T21:24:08.416Z,0.40
2018-01-17T21:26:34.854Z,0.40
2018-01-17T21:29:02.535Z,0.30
2018-01-17T21:31:30.289Z,0.20
2018-01-17T21:33:57.193Z,0.30
2018-01-17T21:36:23.471Z,0.30
2018-01-17T21:38:50.488Z,0.40
2018-01-17T21:41:16.817Z,0.30
2018-01-17T21:43:49.243Z,0.40
2018-01-17T21:46:16.238Z,0.50
2018-01-17T21:48:42.423Z,0.50
2018-01-17T21:51:08.594Z,0.60
2018-01-17T21:53:34.883Z,0.60
2018-01-17T21:56:01.056Z,0.70
2018-01-17T21:58:27.299Z,0.70
2018-01-17T22:00:54.321Z,0.80
2018-01-17T22:03:20.440Z,0.80
2018-01-17T22:05:47.887Z,0.80
2018-01-17T22:08:14.324Z,0.80
2018-01-17T22:10:40.520Z,0.80
2018-01-17T22:13:06.878Z,0.80
2018-01-17T22:15:33.070Z,0.80
2018-01-17T22:17:59.246Z,0.80
2018-01-17T22:20:25.370Z,0.80
2018-01-17T22:22:51.687Z,0.80
2018-01-17T22:25:17.821Z,0.80
2018-01-17T22:27:44.305Z,0.70
2018-01-17T22:30:11.129Z,0.70
2018-01-17T22:32:37.369Z,0.60
2018-01-17T22:35:03.753Z,0.60
2018-01-17T22:37:29.964Z,0.50
2018-01-17T22:39:56.142Z,0.50
2018-01-17T22:42:23.079Z,0.50
2018-01-17T22:44:50.044Z,0.40
2018-01-17T22:47:16.203Z,0.40
2018-01-17T22:49:42.430Z,0.50
2018-01-17T22:52:08.645Z,0.60
2018-01-17T22:54:35.020Z,0.60
2018-01-17T22:57:02.029Z,0.40
2018-01-17T22:59:28.559Z,0.40
2018-01-17T23:01:55.220Z,0.50
2018-01-17T23:04:21.876Z,0.40
2018-01-17T23:06:48.776Z,0.20
2018-01-17T23:09:15.022Z,0.20
2018-01-17T23:11:41.429Z,0.20
2018-01-17T23:14:07.700Z,0.20
2018-01-17T23:16:34.629Z,0.40
2018-01-17T23:19:02.367Z,0.40
2018-01-17T23:21:28.542Z,0.40
2018-01-17T23:23:55.514Z,0.40
2018-01-17T23:26:21.733Z,0.40
2018-01-17T23:28:48.326Z,0.40
2018-01-17T23:31:14.700Z,0.30
2018-01-17T23:33:41.071Z,0.30
2018-01-17T23:36:07.299Z,0.30
2018-01-17T23:38:34.065Z,0.30
2018-01-17T23:41:01.291Z,0.60
2018-01-17T23:43:27.807Z,0.60
2018-01-17T23:45:54.083Z,0.60
2018-01-17T23:48:20.987Z,0.70
2018-01-17T23:50:47.254Z,0.70
2018-01-17T23:53:14.658Z,0.80
2018-01-17T23:55:40.773Z,0.70
2018-01-17T23:58:07.026Z,0.80
